sensor_id;sensor_type;location;lat;lon;timestamp;temperature;humidity
26621;DHT22;14253;44.840;10.444;2022-09-09T00:04:29;20.20;99.90
26621;DHT22;14253;44.840;10.444;2022-09-09T00:15:31;20.10;99.90
26621;DHT22;14253;44.840;10.444;2022-09-09T00:21:05;20.10;99.90
26621;DHT22;14253;44.840;10.444;2022-09-09T00:23:42;20.10;99.90
26621;DHT22;14253;44.840;10.444;2022-09-09T00:26:19;20.10;99.90
26621;DHT22;14253;44.840;10.444;2022-09-09T00:29:05;20.10;99.90
26621;DHT22;14253;44.840;10.444;2022-09-09T00:31:35;20.10;99.90
26621;DHT22;14253;44.840;10.444;2022-09-09T00:34:12;20.10;99.90
26621;DHT22;14253;44.840;10.444;2022-09-09T00:36:41;20.10;99.90
26621;DHT22;14253;44.840;10.444;2022-09-09T00:39:19;20.20;99.90
26621;DHT22;14253;44.840;10.444;2022-09-09T00:42:15;20.30;99.90
26621;DHT22;14253;44.840;10.444;2022-09-09T00:50:35;20.20;99.90
26621;DHT22;14253;44.840;10.444;2022-09-09T00:53:39;20.10;99.90
26621;DHT22;14253;44.840;10.444;2022-09-09T00:56:18;20.00;99.90
26621;DHT22;14253;44.840;10.444;2022-09-09T00:59:04;20.00;99.90
26621;DHT22;14253;44.840;10.444;2022-09-09T01:01:32;20.00;99.90
26621;DHT22;14253;44.840;10.444;2022-09-09T01:03:58;20.00;99.90
26621;DHT22;14253;44.840;10.444;2022-09-09T01:06:29;19.90;99.90
26621;DHT22;14253;44.840;10.444;2022-09-09T01:14:35;19.90;99.90
26621;DHT22;14253;44.840;10.444;2022-09-09T01:17:16;19.80;99.90
26621;DHT22;14253;44.840;10.444;2022-09-09T01:20:04;19.80;99.90
26621;DHT22;14253;44.840;10.444;2022-09-09T01:22:58;19.80;99.90
26621;DHT22;14253;44.840;10.444;2022-09-09T01:28:31;19.70;99.90
26621;DHT22;14253;44.840;10.444;2022-09-09T01:31:04;19.70;99.90
26621;DHT22;14253;44.840;10.444;2022-09-09T01:33:38;19.70;99.90
26621;DHT22;14253;44.840;10.444;2022-09-09T01:36:11;19.70;99.90
26621;DHT22;14253;44.840;10.444;2022-09-09T01:38:45;19.60;99.90
26621;DHT22;14253;44.840;10.444;2022-09-09T01:41:12;19.60;99.90
26621;DHT22;14253;44.840;10.444;2022-09-09T01:43:47;19.50;99.90
26621;DHT22;14253;44.840;10.444;2022-09-09T01:46:14;19.50;99.90
26621;DHT22;14253;44.840;10.444;2022-09-09T01:48:43;19.40;99.90
26621;DHT22;14253;44.840;10.444;2022-09-09T01:51:10;19.40;99.90
26621;DHT22;14253;44.840;10.444;2022-09-09T01:53:37;19.40;99.90
26621;DHT22;14253;44.840;10.444;2022-09-09T01:56:31;19.30;99.90
26621;DHT22;14253;44.840;10.444;2022-09-09T02:06:56;19.20;99.90
26621;DHT22;14253;44.840;10.444;2022-09-09T02:09:26;19.20;99.90
26621;DHT22;14253;44.840;10.444;2022-09-09T02:12:02;19.20;99.90
26621;DHT22;14253;44.840;10.444;2022-09-09T02:14:43;19.20;99.90
26621;DHT22;14253;44.840;10.444;2022-09-09T02:17:16;19.10;99.90
26621;DHT22;14253;44.840;10.444;2022-09-09T02:20:07;19.20;99.90
26621;DHT22;14253;44.840;10.444;2022-09-09T02:22:56;19.20;99.90
26621;DHT22;14253;44.840;10.444;2022-09-09T02:25:26;19.10;99.90
26621;DHT22;14253;44.840;10.444;2022-09-09T02:27:58;19.10;99.90
26621;DHT22;14253;44.840;10.444;2022-09-09T02:30:24;19.10;99.90
26621;DHT22;14253;44.840;10.444;2022-09-09T02:32:58;19.00;99.90
26621;DHT22;14253;44.840;10.444;2022-09-09T02:35:46;19.00;99.90
26621;DHT22;14253;44.840;10.444;2022-09-09T02:38:17;18.90;99.90
26621;DHT22;14253;44.840;10.444;2022-09-09T02:40:55;18.80;99.90
26621;DHT22;14253;44.840;10.444;2022-09-09T02:43:21;18.80;99.90
26621;DHT22;14253;44.840;10.444;2022-09-09T02:48:51;18.70;99.90
26621;DHT22;14253;44.840;10.444;2022-09-09T02:51:32;18.70;99.90
26621;DHT22;14253;44.840;10.444;2022-09-09T02:54:09;18.70;99.90
26621;DHT22;14253;44.840;10.444;2022-09-09T02:56:41;18.70;99.90
26621;DHT22;14253;44.840;10.444;2022-09-09T02:59:11;18.60;99.90
26621;DHT22;14253;44.840;10.444;2022-09-09T03:01:38;18.60;99.90
26621;DHT22;14253;44.840;10.444;2022-09-09T03:04:06;18.60;99.90
26621;DHT22;14253;44.840;10.444;2022-09-09T03:06:32;18.60;99.90
26621;DHT22;14253;44.840;10.444;2022-09-09T03:09:07;18.60;99.90
26621;DHT22;14253;44.840;10.444;2022-09-09T03:11:36;18.50;99.90
26621;DHT22;14253;44.840;10.444;2022-09-09T03:14:05;18.60;99.90
26621;DHT22;14253;44.840;10.444;2022-09-09T03:16:31;18.50;99.90
26621;DHT22;14253;44.840;10.444;2022-09-09T03:19:00;18.50;99.90
26621;DHT22;14253;44.840;10.444;2022-09-09T03:21:27;18.60;99.90
26621;DHT22;14253;44.840;10.444;2022-09-09T03:23:54;18.60;99.90
26621;DHT22;14253;44.840;10.444;2022-09-09T03:26:21;18.50;99.90
26621;DHT22;14253;44.840;10.444;2022-09-09T03:28:47;18.60;99.90
26621;DHT22;14253;44.840;10.444;2022-09-09T03:31:17;18.60;99.90
26621;DHT22;14253;44.840;10.444;2022-09-09T03:33:44;18.60;99.90
26621;DHT22;14253;44.840;10.444;2022-09-09T03:36:13;18.60;99.90
26621;DHT22;14253;44.840;10.444;2022-09-09T03:38:39;18.60;99.90
26621;DHT22;14253;44.840;10.444;2022-09-09T03:41:06;18.60;99.90
26621;DHT22;14253;44.840;10.444;2022-09-09T03:43:34;18.60;99.90
26621;DHT22;14253;44.840;10.444;2022-09-09T03:46:00;18.50;99.90
26621;DHT22;14253;44.840;10.444;2022-09-09T03:48:28;18.50;99.90
26621;DHT22;14253;44.840;10.444;2022-09-09T03:50:55;18.50;99.90
26621;DHT22;14253;44.840;10.444;2022-09-09T03:53:24;18.40;99.90
26621;DHT22;14253;44.840;10.444;2022-09-09T03:55:53;18.40;99.90
26621;DHT22;14253;44.840;10.444;2022-09-09T03:58:22;18.40;99.90
26621;DHT22;14253;44.840;10.444;2022-09-09T04:00:58;18.30;99.90
26621;DHT22;14253;44.840;10.444;2022-09-09T04:03:27;18.30;99.90
26621;DHT22;14253;44.840;10.444;2022-09-09T04:05:53;18.30;99.90
26621;DHT22;14253;44.840;10.444;2022-09-09T04:08:21;18.40;99.90
26621;DHT22;14253;44.840;10.444;2022-09-09T04:10:49;18.30;99.90
26621;DHT22;14253;44.840;10.444;2022-09-09T04:13:17;18.20;99.90
26621;DHT22;14253;44.840;10.444;2022-09-09T04:15:51;18.20;99.90
26621;DHT22;14253;44.840;10.444;2022-09-09T04:18:17;18.00;99.90
26621;DHT22;14253;44.840;10.444;2022-09-09T04:20:43;17.90;99.90
26621;DHT22;14253;44.840;10.444;2022-09-09T04:23:11;17.80;99.90
26621;DHT22;14253;44.840;10.444;2022-09-09T04:25:37;17.80;99.90
26621;DHT22;14253;44.840;10.444;2022-09-09T04:28:03;17.80;99.90
26621;DHT22;14253;44.840;10.444;2022-09-09T04:30:30;17.70;99.90
26621;DHT22;14253;44.840;10.444;2022-09-09T04:32:56;17.60;99.90
26621;DHT22;14253;44.840;10.444;2022-09-09T04:35:23;17.60;99.90
26621;DHT22;14253;44.840;10.444;2022-09-09T04:37:49;17.70;99.90
26621;DHT22;14253;44.840;10.444;2022-09-09T04:40:16;17.80;99.90
26621;DHT22;14253;44.840;10.444;2022-09-09T04:42:42;17.70;99.90
26621;DHT22;14253;44.840;10.444;2022-09-09T04:45:11;17.70;99.90
26621;DHT22;14253;44.840;10.444;2022-09-09T04:47:40;17.80;99.90
26621;DHT22;14253;44.840;10.444;2022-09-09T04:50:07;17.70;99.90
26621;DHT22;14253;44.840;10.444;2022-09-09T04:52:36;17.70;99.90
26621;DHT22;14253;44.840;10.444;2022-09-09T04:55:03;17.60;99.90
26621;DHT22;14253;44.840;10.444;2022-09-09T04:57:29;17.60;99.90
26621;DHT22;14253;44.840;10.444;2022-09-09T04:59:58;17.60;99.90
26621;DHT22;14253;44.840;10.444;2022-09-09T05:02:25;17.70;99.90
26621;DHT22;14253;44.840;10.444;2022-09-09T05:04:51;17.60;99.90
26621;DHT22;14253;44.840;10.444;2022-09-09T05:07:17;17.50;99.90
26621;DHT22;14253;44.840;10.444;2022-09-09T05:09:44;17.60;99.90
26621;DHT22;14253;44.840;10.444;2022-09-09T05:12:11;17.60;99.90
26621;DHT22;14253;44.840;10.444;2022-09-09T05:14:43;17.70;99.90
26621;DHT22;14253;44.840;10.444;2022-09-09T05:17:10;17.60;99.90
26621;DHT22;14253;44.840;10.444;2022-09-09T05:19:38;17.70;99.90
26621;DHT22;14253;44.840;10.444;2022-09-09T05:22:04;17.70;99.90
26621;DHT22;14253;44.840;10.444;2022-09-09T05:24:38;17.70;99.90
26621;DHT22;14253;44.840;10.444;2022-09-09T05:27:04;17.70;99.90
26621;DHT22;14253;44.840;10.444;2022-09-09T05:29:32;17.80;99.90
26621;DHT22;14253;44.840;10.444;2022-09-09T05:32:04;17.90;99.90
26621;DHT22;14253;44.840;10.444;2022-09-09T05:34:31;18.00;99.90
26621;DHT22;14253;44.840;10.444;2022-09-09T05:36:57;18.10;99.90
26621;DHT22;14253;44.840;10.444;2022-09-09T05:39:25;18.10;99.90
26621;DHT22;14253;44.840;10.444;2022-09-09T05:41:51;18.10;99.90
26621;DHT22;14253;44.840;10.444;2022-09-09T05:44:17;18.30;99.90
26621;DHT22;14253;44.840;10.444;2022-09-09T05:46:43;18.30;99.90
26621;DHT22;14253;44.840;10.444;2022-09-09T05:49:11;18.40;99.90
26621;DHT22;14253;44.840;10.444;2022-09-09T05:51:39;18.40;99.90
26621;DHT22;14253;44.840;10.444;2022-09-09T05:54:11;18.70;99.90
26621;DHT22;14253;44.840;10.444;2022-09-09T05:56:42;18.90;89.70
26621;DHT22;14253;44.840;10.444;2022-09-09T05:59:09;19.00;49.10
26621;DHT22;14253;44.840;10.444;2022-09-09T06:01:36;19.10;10.20
26621;DHT22;14253;44.840;10.444;2022-09-09T06:04:07;19.10;20.20
26621;DHT22;14253;44.840;10.444;2022-09-09T06:06:36;19.10;28.40
26621;DHT22;14253;44.840;10.444;2022-09-09T06:09:06;19.10;99.90
26621;DHT22;14253;44.840;10.444;2022-09-09T06:11:37;19.20;89.30
26621;DHT22;14253;44.840;10.444;2022-09-09T06:14:03;19.30;64.80
26621;DHT22;14253;44.840;10.444;2022-09-09T06:16:31;19.30;83.00
26621;DHT22;14253;44.840;10.444;2022-09-09T06:19:05;19.40;97.60
26621;DHT22;14253;44.840;10.444;2022-09-09T06:21:36;19.40;99.90
26621;DHT22;14253;44.840;10.444;2022-09-09T06:24:07;19.40;99.90
26621;DHT22;14253;44.840;10.444;2022-09-09T06:26:39;19.50;99.90
26621;DHT22;14253;44.840;10.444;2022-09-09T06:29:10;19.60;99.90
26621;DHT22;14253;44.840;10.444;2022-09-09T06:31:36;19.50;99.90
26621;DHT22;14253;44.840;10.444;2022-09-09T06:34:12;19.50;99.90
26621;DHT22;14253;44.840;10.444;2022-09-09T06:36:41;19.50;99.90
26621;DHT22;14253;44.840;10.444;2022-09-09T06:39:07;19.50;99.90
26621;DHT22;14253;44.840;10.444;2022-09-09T06:41:37;19.50;99.90
26621;DHT22;14253;44.840;10.444;2022-09-09T06:44:05;19.60;99.90
26621;DHT22;14253;44.840;10.444;2022-09-09T06:46:39;19.60;99.90
26621;DHT22;14253;44.840;10.444;2022-09-09T06:49:07;19.60;99.90
26621;DHT22;14253;44.840;10.444;2022-09-09T06:51:36;19.70;99.90
26621;DHT22;14253;44.840;10.444;2022-09-09T06:54:04;19.90;99.90
26621;DHT22;14253;44.840;10.444;2022-09-09T06:56:32;19.90;99.90
26621;DHT22;14253;44.840;10.444;2022-09-09T06:59:05;19.90;99.90
26621;DHT22;14253;44.840;10.444;2022-09-09T07:01:37;19.90;99.90
26621;DHT22;14253;44.840;10.444;2022-09-09T07:04:08;20.00;99.90
26621;DHT22;14253;44.840;10.444;2022-09-09T07:06:40;20.10;99.90
26621;DHT22;14253;44.840;10.444;2022-09-09T07:09:11;20.10;99.90
26621;DHT22;14253;44.840;10.444;2022-09-09T07:11:44;20.10;99.90
26621;DHT22;14253;44.840;10.444;2022-09-09T07:14:13;20.20;99.90
26621;DHT22;14253;44.840;10.444;2022-09-09T07:16:41;20.20;99.90
26621;DHT22;14253;44.840;10.444;2022-09-09T07:19:08;20.30;99.90
26621;DHT22;14253;44.840;10.444;2022-09-09T07:21:34;20.40;99.90
26621;DHT22;14253;44.840;10.444;2022-09-09T07:24:01;20.40;99.90
26621;DHT22;14253;44.840;10.444;2022-09-09T07:26:30;20.60;99.90
26621;DHT22;14253;44.840;10.444;2022-09-09T07:28:58;20.80;99.90
26621;DHT22;14253;44.840;10.444;2022-09-09T07:31:26;20.90;99.90
26621;DHT22;14253;44.840;10.444;2022-09-09T07:33:53;21.10;99.90
26621;DHT22;14253;44.840;10.444;2022-09-09T07:36:24;21.20;99.90
26621;DHT22;14253;44.840;10.444;2022-09-09T07:39:00;21.30;99.90
26621;DHT22;14253;44.840;10.444;2022-09-09T07:41:38;21.40;99.90
26621;DHT22;14253;44.840;10.444;2022-09-09T07:44:21;21.60;99.90
26621;DHT22;14253;44.840;10.444;2022-09-09T07:46:50;21.70;99.90
26621;DHT22;14253;44.840;10.444;2022-09-09T07:49:21;21.80;99.90
26621;DHT22;14253;44.840;10.444;2022-09-09T07:51:48;21.80;99.90
26621;DHT22;14253;44.840;10.444;2022-09-09T07:54:18;21.90;99.90
26621;DHT22;14253;44.840;10.444;2022-09-09T07:56:48;22.00;99.90
26621;DHT22;14253;44.840;10.444;2022-09-09T07:59:15;22.10;54.10
26621;DHT22;14253;44.840;10.444;2022-09-09T08:01:51;22.10;20.10
26621;DHT22;14253;44.840;10.444;2022-09-09T08:04:23;22.10;47.60
26621;DHT22;14253;44.840;10.444;2022-09-09T08:06:57;22.20;17.40
26621;DHT22;14253;44.840;10.444;2022-09-09T08:09:25;22.20;1.00
26621;DHT22;14253;44.840;10.444;2022-09-09T08:11:55;22.20;1.00
26621;DHT22;14253;44.840;10.444;2022-09-09T08:14:27;22.20;1.00
26621;DHT22;14253;44.840;10.444;2022-09-09T08:16:55;22.30;1.00
26621;DHT22;14253;44.840;10.444;2022-09-09T08:19:23;22.30;1.00
26621;DHT22;14253;44.840;10.444;2022-09-09T08:21:49;22.50;1.00
26621;DHT22;14253;44.840;10.444;2022-09-09T08:24:16;22.60;1.00
26621;DHT22;14253;44.840;10.444;2022-09-09T08:26:48;22.80;1.00
26621;DHT22;14253;44.840;10.444;2022-09-09T08:29:17;22.90;1.00
26621;DHT22;14253;44.840;10.444;2022-09-09T08:31:46;23.00;1.00
26621;DHT22;14253;44.840;10.444;2022-09-09T08:34:13;23.10;99.90
26621;DHT22;14253;44.840;10.444;2022-09-09T08:36:42;23.30;99.90
26621;DHT22;14253;44.840;10.444;2022-09-09T08:39:10;23.40;99.90
26621;DHT22;14253;44.840;10.444;2022-09-09T08:50:05;24.20;99.90
26621;DHT22;14253;44.840;10.444;2022-09-09T08:57:39;24.40;99.90
26621;DHT22;14253;44.840;10.444;2022-09-09T09:00:09;25.00;99.90
26621;DHT22;14253;44.840;10.444;2022-09-09T09:02:58;25.50;99.90
26621;DHT22;14253;44.840;10.444;2022-09-09T09:05:51;25.80;99.90
26621;DHT22;14253;44.840;10.444;2022-09-09T09:10:55;26.10;99.90
26621;DHT22;14253;44.840;10.444;2022-09-09T09:13:38;26.30;99.90
26621;DHT22;14253;44.840;10.444;2022-09-09T09:16:17;26.70;99.90
26621;DHT22;14253;44.840;10.444;2022-09-09T09:18:46;26.70;99.90
26621;DHT22;14253;44.840;10.444;2022-09-09T09:21:18;26.80;99.90
26621;DHT22;14253;44.840;10.444;2022-09-09T09:24:14;26.80;99.90
26621;DHT22;14253;44.840;10.444;2022-09-09T09:26:43;27.00;99.90
26621;DHT22;14253;44.840;10.444;2022-09-09T09:29:15;27.10;99.90
26621;DHT22;14253;44.840;10.444;2022-09-09T09:31:55;27.20;99.90
26621;DHT22;14253;44.840;10.444;2022-09-09T09:34:25;27.60;99.90
26621;DHT22;14253;44.840;10.444;2022-09-09T09:36:55;27.70;99.90
26621;DHT22;14253;44.840;10.444;2022-09-09T09:39:26;27.70;99.90
26621;DHT22;14253;44.840;10.444;2022-09-09T09:41:54;27.40;99.90
26621;DHT22;14253;44.840;10.444;2022-09-09T09:44:24;27.40;99.90
26621;DHT22;14253;44.840;10.444;2022-09-09T09:46:51;27.70;99.90
26621;DHT22;14253;44.840;10.444;2022-09-09T09:49:17;27.70;99.90
26621;DHT22;14253;44.840;10.444;2022-09-09T09:51:44;27.60;99.90
26621;DHT22;14253;44.840;10.444;2022-09-09T09:56:40;27.70;99.90
26621;DHT22;14253;44.840;10.444;2022-09-09T10:01:54;28.00;99.90
26621;DHT22;14253;44.840;10.444;2022-09-09T10:04:22;28.20;99.90
26621;DHT22;14253;44.840;10.444;2022-09-09T10:06:53;28.20;99.90
26621;DHT22;14253;44.840;10.444;2022-09-09T10:09:30;27.90;99.90
26621;DHT22;14253;44.840;10.444;2022-09-09T10:15:07;27.90;99.90
26621;DHT22;14253;44.840;10.444;2022-09-09T10:18:32;27.80;99.90
26621;DHT22;14253;44.840;10.444;2022-09-09T10:20:51;27.60;99.90
26621;DHT22;14253;44.840;10.444;2022-09-09T10:28:41;27.80;99.90
26621;DHT22;14253;44.840;10.444;2022-09-09T10:34:01;27.80;99.90
26621;DHT22;14253;44.840;10.444;2022-09-09T10:36:29;27.60;99.90
26621;DHT22;14253;44.840;10.444;2022-09-09T10:39:14;27.00;99.90
26621;DHT22;14253;44.840;10.444;2022-09-09T10:55:23;26.60;99.90
26621;DHT22;14253;44.840;10.444;2022-09-09T10:57:56;26.50;99.90
26621;DHT22;14253;44.840;10.444;2022-09-09T11:00:40;26.80;99.90
26621;DHT22;14253;44.840;10.444;2022-09-09T11:03:21;27.00;99.90
26621;DHT22;14253;44.840;10.444;2022-09-09T11:08:32;27.00;99.90
26621;DHT22;14253;44.840;10.444;2022-09-09T11:11:10;26.90;99.90
26621;DHT22;14253;44.840;10.444;2022-09-09T11:18:41;27.80;99.90
26621;DHT22;14253;44.840;10.444;2022-09-09T11:21:21;27.70;99.90
26621;DHT22;14253;44.840;10.444;2022-09-09T11:23:56;27.70;99.90
26621;DHT22;14253;44.840;10.444;2022-09-09T11:26:33;27.70;99.90
26621;DHT22;14253;44.840;10.444;2022-09-09T11:34:56;28.60;99.90
26621;DHT22;14253;44.840;10.444;2022-09-09T11:38:04;28.70;99.90
26621;DHT22;14253;44.840;10.444;2022-09-09T11:40:32;28.70;99.90
26621;DHT22;14253;44.840;10.444;2022-09-09T11:45:35;28.60;99.90
26621;DHT22;14253;44.840;10.444;2022-09-09T11:48:02;28.70;99.90
26621;DHT22;14253;44.840;10.444;2022-09-09T11:50:39;28.90;99.90
26621;DHT22;14253;44.840;10.444;2022-09-09T11:53:19;29.10;99.90
26621;DHT22;14253;44.840;10.444;2022-09-09T11:55:46;29.20;99.90
26621;DHT22;14253;44.840;10.444;2022-09-09T12:00:41;28.90;99.90
26621;DHT22;14253;44.840;10.444;2022-09-09T12:03:42;28.90;99.90
26621;DHT22;14253;44.840;10.444;2022-09-09T12:06:15;29.20;99.90
26621;DHT22;14253;44.840;10.444;2022-09-09T12:08:45;29.20;99.90
26621;DHT22;14253;44.840;10.444;2022-09-09T12:11:12;29.00;99.90
26621;DHT22;14253;44.840;10.444;2022-09-09T12:13:58;29.20;99.90
26621;DHT22;14253;44.840;10.444;2022-09-09T12:16:31;29.20;99.90
26621;DHT22;14253;44.840;10.444;2022-09-09T12:19:17;29.00;99.90
26621;DHT22;14253;44.840;10.444;2022-09-09T12:24:43;29.10;99.90
26621;DHT22;14253;44.840;10.444;2022-09-09T12:27:22;29.30;99.90
26621;DHT22;14253;44.840;10.444;2022-09-09T12:30:10;29.40;99.90
26621;DHT22;14253;44.840;10.444;2022-09-09T12:32:38;29.30;99.90
26621;DHT22;14253;44.840;10.444;2022-09-09T12:35:34;29.10;99.90
26621;DHT22;14253;44.840;10.444;2022-09-09T12:38:05;29.30;99.90
26621;DHT22;14253;44.840;10.444;2022-09-09T12:40:37;29.60;99.90
26621;DHT22;14253;44.840;10.444;2022-09-09T12:43:22;29.80;99.90
26621;DHT22;14253;44.840;10.444;2022-09-09T12:46:10;29.70;99.90
26621;DHT22;14253;44.840;10.444;2022-09-09T12:48:45;30.10;99.90
26621;DHT22;14253;44.840;10.444;2022-09-09T12:51:30;29.90;99.90
26621;DHT22;14253;44.840;10.444;2022-09-09T12:53:56;29.40;99.90
26621;DHT22;14253;44.840;10.444;2022-09-09T12:56:34;29.30;99.90
26621;DHT22;14253;44.840;10.444;2022-09-09T12:59:00;29.60;99.90
26621;DHT22;14253;44.840;10.444;2022-09-09T13:01:32;29.90;99.90
26621;DHT22;14253;44.840;10.444;2022-09-09T13:04:01;30.00;99.90
26621;DHT22;14253;44.840;10.444;2022-09-09T13:06:31;29.80;99.90
26621;DHT22;14253;44.840;10.444;2022-09-09T13:08:59;29.50;99.90
26621;DHT22;14253;44.840;10.444;2022-09-09T13:11:38;29.40;99.90
26621;DHT22;14253;44.840;10.444;2022-09-09T13:14:12;29.40;99.90
26621;DHT22;14253;44.840;10.444;2022-09-09T13:17:00;29.40;99.90
26621;DHT22;14253;44.840;10.444;2022-09-09T13:19:32;29.30;99.90
26621;DHT22;14253;44.840;10.444;2022-09-09T13:22:21;29.50;99.90
26621;DHT22;14253;44.840;10.444;2022-09-09T13:25:01;30.10;99.90
26621;DHT22;14253;44.840;10.444;2022-09-09T13:27:39;29.90;99.90
26621;DHT22;14253;44.840;10.444;2022-09-09T13:30:29;29.70;99.90
26621;DHT22;14253;44.840;10.444;2022-09-09T13:33:00;29.80;99.90
26621;DHT22;14253;44.840;10.444;2022-09-09T13:35:26;30.00;99.90
26621;DHT22;14253;44.840;10.444;2022-09-09T13:37:53;30.00;99.90
26621;DHT22;14253;44.840;10.444;2022-09-09T13:40:23;29.90;99.90
26621;DHT22;14253;44.840;10.444;2022-09-09T13:42:55;30.10;99.90
26621;DHT22;14253;44.840;10.444;2022-09-09T13:45:24;30.20;99.90
26621;DHT22;14253;44.840;10.444;2022-09-09T13:47:53;30.40;99.90
26621;DHT22;14253;44.840;10.444;2022-09-09T13:50:29;30.40;99.90
26621;DHT22;14253;44.840;10.444;2022-09-09T13:52:57;30.30;99.90
26621;DHT22;14253;44.840;10.444;2022-09-09T13:55:28;30.20;99.90
26621;DHT22;14253;44.840;10.444;2022-09-09T13:57:59;30.10;99.90
26621;DHT22;14253;44.840;10.444;2022-09-09T14:00:33;29.70;99.90
26621;DHT22;14253;44.840;10.444;2022-09-09T14:02:59;29.80;99.90
26621;DHT22;14253;44.840;10.444;2022-09-09T14:05:31;29.90;99.90
26621;DHT22;14253;44.840;10.444;2022-09-09T14:07:57;30.10;99.90
26621;DHT22;14253;44.840;10.444;2022-09-09T14:10:23;30.40;99.90
26621;DHT22;14253;44.840;10.444;2022-09-09T14:12:49;30.70;99.90
26621;DHT22;14253;44.840;10.444;2022-09-09T14:15:15;30.90;99.90
26621;DHT22;14253;44.840;10.444;2022-09-09T14:17:42;30.50;99.90
26621;DHT22;14253;44.840;10.444;2022-09-09T14:20:09;30.10;99.90
26621;DHT22;14253;44.840;10.444;2022-09-09T14:22:37;30.00;99.90
26621;DHT22;14253;44.840;10.444;2022-09-09T14:25:05;30.10;99.90
26621;DHT22;14253;44.840;10.444;2022-09-09T14:27:32;30.10;99.90
26621;DHT22;14253;44.840;10.444;2022-09-09T14:29:58;30.40;99.90
26621;DHT22;14253;44.840;10.444;2022-09-09T14:32:26;30.70;99.90
26621;DHT22;14253;44.840;10.444;2022-09-09T14:34:52;30.90;99.90
26621;DHT22;14253;44.840;10.444;2022-09-09T14:37:18;31.10;99.90
26621;DHT22;14253;44.840;10.444;2022-09-09T14:39:44;31.00;99.90
26621;DHT22;14253;44.840;10.444;2022-09-09T14:42:13;31.30;99.90
26621;DHT22;14253;44.840;10.444;2022-09-09T14:44:39;31.40;99.90
26621;DHT22;14253;44.840;10.444;2022-09-09T14:47:06;31.30;99.90
26621;DHT22;14253;44.840;10.444;2022-09-09T14:49:36;31.10;99.90
26621;DHT22;14253;44.840;10.444;2022-09-09T14:52:03;30.90;99.90
26621;DHT22;14253;44.840;10.444;2022-09-09T14:54:31;30.80;99.90
26621;DHT22;14253;44.840;10.444;2022-09-09T14:56:59;30.90;99.90
26621;DHT22;14253;44.840;10.444;2022-09-09T14:59:25;31.10;99.90
26621;DHT22;14253;44.840;10.444;2022-09-09T15:01:52;31.40;99.90
26621;DHT22;14253;44.840;10.444;2022-09-09T15:04:18;31.50;99.90
26621;DHT22;14253;44.840;10.444;2022-09-09T15:06:45;31.80;99.90
26621;DHT22;14253;44.840;10.444;2022-09-09T15:09:14;32.00;99.90
26621;DHT22;14253;44.840;10.444;2022-09-09T15:11:41;32.10;99.90
26621;DHT22;14253;44.840;10.444;2022-09-09T15:14:08;32.40;99.90
26621;DHT22;14253;44.840;10.444;2022-09-09T15:16:35;32.90;99.90
26621;DHT22;14253;44.840;10.444;2022-09-09T15:19:02;33.00;99.90
26621;DHT22;14253;44.840;10.444;2022-09-09T15:21:33;33.40;99.90
26621;DHT22;14253;44.840;10.444;2022-09-09T15:24:00;34.00;99.90
26621;DHT22;14253;44.840;10.444;2022-09-09T15:26:26;34.20;99.90
26621;DHT22;14253;44.840;10.444;2022-09-09T15:28:53;34.10;99.90
26621;DHT22;14253;44.840;10.444;2022-09-09T15:31:22;34.00;99.90
26621;DHT22;14253;44.840;10.444;2022-09-09T15:33:54;34.30;99.90
26621;DHT22;14253;44.840;10.444;2022-09-09T15:36:28;34.50;99.90
26621;DHT22;14253;44.840;10.444;2022-09-09T15:38:54;34.50;99.90
26621;DHT22;14253;44.840;10.444;2022-09-09T15:41:22;33.80;99.90
26621;DHT22;14253;44.840;10.444;2022-09-09T15:43:50;33.40;99.90
26621;DHT22;14253;44.840;10.444;2022-09-09T15:46:37;32.30;99.90
26621;DHT22;14253;44.840;10.444;2022-09-09T15:51:35;30.60;99.90
26621;DHT22;14253;44.840;10.444;2022-09-09T15:54:01;30.80;99.90
26621;DHT22;14253;44.840;10.444;2022-09-09T15:56:28;31.70;99.90
26621;DHT22;14253;44.840;10.444;2022-09-09T15:58:59;32.20;99.90
26621;DHT22;14253;44.840;10.444;2022-09-09T16:01:26;32.90;99.90
26621;DHT22;14253;44.840;10.444;2022-09-09T16:03:53;33.60;99.90
26621;DHT22;14253;44.840;10.444;2022-09-09T16:06:21;34.30;99.90
26621;DHT22;14253;44.840;10.444;2022-09-09T16:08:50;34.40;99.90
26621;DHT22;14253;44.840;10.444;2022-09-09T16:13:46;33.80;99.90
26621;DHT22;14253;44.840;10.444;2022-09-09T16:16:15;33.60;99.90
26621;DHT22;14253;44.840;10.444;2022-09-09T16:18:43;33.30;99.90
26621;DHT22;14253;44.840;10.444;2022-09-09T16:21:28;33.20;99.90
26621;DHT22;14253;44.840;10.444;2022-09-09T16:23:55;33.10;99.90
26621;DHT22;14253;44.840;10.444;2022-09-09T16:26:22;32.70;99.90
26621;DHT22;14253;44.840;10.444;2022-09-09T16:28:48;32.10;99.90
26621;DHT22;14253;44.840;10.444;2022-09-09T16:31:20;31.70;99.90
26621;DHT22;14253;44.840;10.444;2022-09-09T16:33:47;31.00;99.90
26621;DHT22;14253;44.840;10.444;2022-09-09T16:36:21;30.40;99.90
26621;DHT22;14253;44.840;10.444;2022-09-09T16:38:47;30.00;99.90
26621;DHT22;14253;44.840;10.444;2022-09-09T16:41:14;29.70;99.90
26621;DHT22;14253;44.840;10.444;2022-09-09T16:43:40;29.50;99.90
26621;DHT22;14253;44.840;10.444;2022-09-09T16:46:14;29.20;99.90
26621;DHT22;14253;44.840;10.444;2022-09-09T16:48:43;29.00;99.90
26621;DHT22;14253;44.840;10.444;2022-09-09T16:53:43;28.70;99.90
26621;DHT22;14253;44.840;10.444;2022-09-09T16:56:11;28.60;99.90
26621;DHT22;14253;44.840;10.444;2022-09-09T16:58:37;28.50;99.90
26621;DHT22;14253;44.840;10.444;2022-09-09T17:01:04;28.30;99.90
26621;DHT22;14253;44.840;10.444;2022-09-09T17:03:31;27.90;99.90
26621;DHT22;14253;44.840;10.444;2022-09-09T17:05:58;27.70;99.90
26621;DHT22;14253;44.840;10.444;2022-09-09T17:08:30;27.40;99.90
26621;DHT22;14253;44.840;10.444;2022-09-09T17:10:57;27.30;99.90
26621;DHT22;14253;44.840;10.444;2022-09-09T17:13:24;27.10;99.90
26621;DHT22;14253;44.840;10.444;2022-09-09T17:15:51;27.00;99.90
26621;DHT22;14253;44.840;10.444;2022-09-09T17:18:17;26.80;99.90
26621;DHT22;14253;44.840;10.444;2022-09-09T17:20:43;26.60;99.90
26621;DHT22;14253;44.840;10.444;2022-09-09T17:23:12;26.50;99.90
26621;DHT22;14253;44.840;10.444;2022-09-09T17:25:41;26.40;99.90
26621;DHT22;14253;44.840;10.444;2022-09-09T17:28:07;26.40;99.90
26621;DHT22;14253;44.840;10.444;2022-09-09T17:30:34;26.30;99.90
26621;DHT22;14253;44.840;10.444;2022-09-09T17:33:00;26.30;99.90
26621;DHT22;14253;44.840;10.444;2022-09-09T17:35:26;26.30;99.90
26621;DHT22;14253;44.840;10.444;2022-09-09T17:37:53;26.20;99.90